KHKS/HKS METAR and TAF weather

Enter ICAO airport designator
Station Type Date Time Source
KHKS METAR 2022/08/12 13:53 UTC NOAA

KHKS 121353Z AUTO 02004KT 10SM SCT007 27/24 A3006 RMK AO2 SLP169 T02720239


Station Type Date Time Source
KHKS Decoded METAR 2022/08/12 13:53 UTC NOAA

HAWKINS FIELD, MS, United States (KHKS) 32-20N 090-13W 108M
Aug 12, 2022 - 09:53 AM EDT / 2022.08.12 1353 UTC
Wind: from the NNE (020 degrees) at 5 MPH (4 KT):0
Visibility: 10 mile(s):0
Sky conditions: partly cloudy
Temperature: 81.0 F (27.2 C)
Dew Point: 75.0 F (23.9 C)
Relative Humidity: 82%
Pressure (altimeter): 30.06 in. Hg (1017 hPa)
ob: KHKS 121353Z AUTO 02004KT 10SM SCT007 27/24 A3006 RMK AO2 SLP169 T02720239
cycle: 14

Station Type Date Time Source
KHKS TAF 2022/08/12 12:22 UTC NOAA

TAF KHKS 121120Z 1212/1312 00000KT 6SM BR FEW002
TEMPO 1212/1214 4SM BR BKN007
FM121400 06007KT P6SM SCT050 BKN100
TEMPO 1219/1223 18015G25KT 2SM TSRA BKN050CB
AMD NOT SKED

Example: see airport list